sensor_id;sensor_type;location;lat;lon;timestamp;P1;durP1;ratioP1;P2;durP2;ratioP2
13445;SDS011;6795;51.232;3.764;2023-04-01T00:00:55;9.05;;;2.30;;
13445;SDS011;6795;51.232;3.764;2023-04-01T00:03:24;13.80;;;2.53;;
13445;SDS011;6795;51.232;3.764;2023-04-01T00:05:53;9.93;;;2.15;;
13445;SDS011;6795;51.232;3.764;2023-04-01T00:08:22;12.65;;;2.33;;
13445;SDS011;6795;51.232;3.764;2023-04-01T00:10:53;11.00;;;3.45;;
13445;SDS011;6795;51.232;3.764;2023-04-01T00:13:23;16.65;;;3.05;;
13445;SDS011;6795;51.232;3.764;2023-04-01T00:15:53;11.88;;;2.95;;
13445;SDS011;6795;51.232;3.764;2023-04-01T00:18:22;11.95;;;3.28;;
13445;SDS011;6795;51.232;3.764;2023-04-01T00:20:52;10.60;;;2.85;;
13445;SDS011;6795;51.232;3.764;2023-04-01T00:23:20;10.45;;;2.95;;
13445;SDS011;6795;51.232;3.764;2023-04-01T00:25:49;15.55;;;3.78;;
13445;SDS011;6795;51.232;3.764;2023-04-01T00:28:19;17.23;;;3.78;;
13445;SDS011;6795;51.232;3.764;2023-04-01T00:30:48;19.25;;;3.50;;
13445;SDS011;6795;51.232;3.764;2023-04-01T00:33:18;15.15;;;3.80;;
13445;SDS011;6795;51.232;3.764;2023-04-01T00:35:46;15.70;;;3.83;;
13445;SDS011;6795;51.232;3.764;2023-04-01T00:38:15;13.88;;;4.07;;
13445;SDS011;6795;51.232;3.764;2023-04-01T00:40:45;16.92;;;5.57;;
13445;SDS011;6795;51.232;3.764;2023-04-01T00:43:15;17.98;;;4.72;;
13445;SDS011;6795;51.232;3.764;2023-04-01T00:45:47;24.92;;;6.00;;
13445;SDS011;6795;51.232;3.764;2023-04-01T00:48:17;15.27;;;3.55;;
13445;SDS011;6795;51.232;3.764;2023-04-01T00:50:47;13.80;;;4.10;;
13445;SDS011;6795;51.232;3.764;2023-04-01T00:53:17;15.95;;;3.42;;
13445;SDS011;6795;51.232;3.764;2023-04-01T00:55:49;11.68;;;3.95;;
13445;SDS011;6795;51.232;3.764;2023-04-01T00:58:20;17.08;;;3.85;;
13445;SDS011;6795;51.232;3.764;2023-04-01T01:00:51;11.88;;;5.10;;
13445;SDS011;6795;51.232;3.764;2023-04-01T01:03:20;10.48;;;4.50;;
13445;SDS011;6795;51.232;3.764;2023-04-01T01:08:56;14.45;;;4.85;;
13445;SDS011;6795;51.232;3.764;2023-04-01T01:11:29;15.07;;;5.68;;
13445;SDS011;6795;51.232;3.764;2023-04-01T01:14:15;15.80;;;5.28;;
13445;SDS011;6795;51.232;3.764;2023-04-01T01:16:48;13.80;;;5.55;;
13445;SDS011;6795;51.232;3.764;2023-04-01T01:19:25;12.63;;;3.78;;
13445;SDS011;6795;51.232;3.764;2023-04-01T01:22:07;14.15;;;4.97;;
13445;SDS011;6795;51.232;3.764;2023-04-01T01:27:25;15.68;;;5.85;;
13445;SDS011;6795;51.232;3.764;2023-04-01T01:30:04;16.98;;;4.85;;
13445;SDS011;6795;51.232;3.764;2023-04-01T01:32:39;10.73;;;4.88;;
13445;SDS011;6795;51.232;3.764;2023-04-01T01:35:15;14.13;;;4.15;;
13445;SDS011;6795;51.232;3.764;2023-04-01T01:37:45;11.48;;;3.50;;
13445;SDS011;6795;51.232;3.764;2023-04-01T01:40:14;13.07;;;4.18;;
13445;SDS011;6795;51.232;3.764;2023-04-01T01:42:45;10.15;;;3.45;;
13445;SDS011;6795;51.232;3.764;2023-04-01T01:45:15;13.38;;;3.00;;
13445;SDS011;6795;51.232;3.764;2023-04-01T01:47:45;10.43;;;2.65;;
13445;SDS011;6795;51.232;3.764;2023-04-01T01:50:16;10.25;;;3.15;;
13445;SDS011;6795;51.232;3.764;2023-04-01T01:52:45;6.45;;;3.17;;
13445;SDS011;6795;51.232;3.764;2023-04-01T01:55:24;9.23;;;3.58;;
13445;SDS011;6795;51.232;3.764;2023-04-01T01:57:55;9.23;;;4.53;;
13445;SDS011;6795;51.232;3.764;2023-04-01T02:00:24;10.65;;;4.13;;
13445;SDS011;6795;51.232;3.764;2023-04-01T02:02:53;10.52;;;4.72;;
13445;SDS011;6795;51.232;3.764;2023-04-01T02:05:24;13.55;;;5.78;;
13445;SDS011;6795;51.232;3.764;2023-04-01T02:07:55;16.80;;;7.32;;
13445;SDS011;6795;51.232;3.764;2023-04-01T02:10:24;15.35;;;7.18;;
13445;SDS011;6795;51.232;3.764;2023-04-01T02:12:53;11.05;;;5.78;;
13445;SDS011;6795;51.232;3.764;2023-04-01T02:15:26;10.98;;;6.60;;
13445;SDS011;6795;51.232;3.764;2023-04-01T02:17:57;14.73;;;6.70;;
13445;SDS011;6795;51.232;3.764;2023-04-01T02:20:27;14.20;;;6.53;;
13445;SDS011;6795;51.232;3.764;2023-04-01T02:22:57;15.68;;;7.82;;
13445;SDS011;6795;51.232;3.764;2023-04-01T02:25:27;17.27;;;7.88;;
13445;SDS011;6795;51.232;3.764;2023-04-01T02:27:58;19.08;;;8.60;;
13445;SDS011;6795;51.232;3.764;2023-04-01T02:30:28;14.02;;;6.88;;
13445;SDS011;6795;51.232;3.764;2023-04-01T02:32:58;12.80;;;6.60;;
13445;SDS011;6795;51.232;3.764;2023-04-01T02:35:28;14.98;;;7.50;;
13445;SDS011;6795;51.232;3.764;2023-04-01T02:37:58;11.95;;;5.22;;
13445;SDS011;6795;51.232;3.764;2023-04-01T02:40:27;11.70;;;5.75;;
13445;SDS011;6795;51.232;3.764;2023-04-01T02:42:55;13.77;;;4.93;;
13445;SDS011;6795;51.232;3.764;2023-04-01T02:45:24;9.32;;;4.22;;
13445;SDS011;6795;51.232;3.764;2023-04-01T02:47:53;10.43;;;3.20;;
13445;SDS011;6795;51.232;3.764;2023-04-01T02:50:21;10.50;;;4.13;;
13445;SDS011;6795;51.232;3.764;2023-04-01T02:52:51;10.73;;;4.40;;
13445;SDS011;6795;51.232;3.764;2023-04-01T02:55:20;10.73;;;4.20;;
13445;SDS011;6795;51.232;3.764;2023-04-01T02:57:49;16.65;;;4.45;;
13445;SDS011;6795;51.232;3.764;2023-04-01T03:00:17;10.65;;;4.32;;
13445;SDS011;6795;51.232;3.764;2023-04-01T03:02:46;14.70;;;5.45;;
13445;SDS011;6795;51.232;3.764;2023-04-01T03:05:15;12.13;;;4.60;;
13445;SDS011;6795;51.232;3.764;2023-04-01T03:07:47;6.43;;;4.38;;
13445;SDS011;6795;51.232;3.764;2023-04-01T03:10:17;11.82;;;4.60;;
13445;SDS011;6795;51.232;3.764;2023-04-01T03:12:46;10.88;;;5.25;;
13445;SDS011;6795;51.232;3.764;2023-04-01T03:15:14;13.23;;;5.63;;
13445;SDS011;6795;51.232;3.764;2023-04-01T03:17:43;12.38;;;5.45;;
13445;SDS011;6795;51.232;3.764;2023-04-01T03:20:13;17.23;;;6.63;;
13445;SDS011;6795;51.232;3.764;2023-04-01T03:22:42;13.23;;;6.53;;
13445;SDS011;6795;51.232;3.764;2023-04-01T03:25:12;15.02;;;6.82;;
13445;SDS011;6795;51.232;3.764;2023-04-01T03:27:42;14.70;;;7.18;;
13445;SDS011;6795;51.232;3.764;2023-04-01T03:30:11;14.35;;;9.05;;
13445;SDS011;6795;51.232;3.764;2023-04-01T03:32:40;11.57;;;7.50;;
13445;SDS011;6795;51.232;3.764;2023-04-01T03:35:08;12.57;;;6.20;;
13445;SDS011;6795;51.232;3.764;2023-04-01T03:37:37;8.10;;;5.43;;
13445;SDS011;6795;51.232;3.764;2023-04-01T03:40:06;11.93;;;5.75;;
13445;SDS011;6795;51.232;3.764;2023-04-01T03:42:35;9.73;;;5.35;;
13445;SDS011;6795;51.232;3.764;2023-04-01T03:45:06;10.05;;;6.60;;
13445;SDS011;6795;51.232;3.764;2023-04-01T03:47:35;12.95;;;6.60;;
13445;SDS011;6795;51.232;3.764;2023-04-01T03:50:04;11.43;;;6.40;;
13445;SDS011;6795;51.232;3.764;2023-04-01T03:52:33;10.98;;;6.35;;
13445;SDS011;6795;51.232;3.764;2023-04-01T03:55:02;9.80;;;4.07;;
13445;SDS011;6795;51.232;3.764;2023-04-01T03:57:31;7.57;;;4.28;;
13445;SDS011;6795;51.232;3.764;2023-04-01T04:00:00;4.85;;;2.92;;
13445;SDS011;6795;51.232;3.764;2023-04-01T04:02:30;5.78;;;3.17;;
13445;SDS011;6795;51.232;3.764;2023-04-01T04:04:59;7.18;;;4.63;;
13445;SDS011;6795;51.232;3.764;2023-04-01T04:07:28;10.05;;;3.75;;
13445;SDS011;6795;51.232;3.764;2023-04-01T04:09:56;9.02;;;4.72;;
13445;SDS011;6795;51.232;3.764;2023-04-01T04:12:25;8.45;;;4.35;;
13445;SDS011;6795;51.232;3.764;2023-04-01T04:14:54;10.55;;;4.57;;
13445;SDS011;6795;51.232;3.764;2023-04-01T04:17:22;9.30;;;5.55;;
13445;SDS011;6795;51.232;3.764;2023-04-01T04:19:53;10.50;;;5.07;;
13445;SDS011;6795;51.232;3.764;2023-04-01T04:22:21;13.45;;;5.53;;
13445;SDS011;6795;51.232;3.764;2023-04-01T04:24:50;9.40;;;5.50;;
13445;SDS011;6795;51.232;3.764;2023-04-01T04:27:18;10.95;;;4.55;;
13445;SDS011;6795;51.232;3.764;2023-04-01T04:29:47;17.33;;;6.28;;
13445;SDS011;6795;51.232;3.764;2023-04-01T04:32:16;15.85;;;6.20;;
13445;SDS011;6795;51.232;3.764;2023-04-01T04:34:45;11.98;;;6.13;;
13445;SDS011;6795;51.232;3.764;2023-04-01T04:37:15;12.68;;;5.05;;
13445;SDS011;6795;51.232;3.764;2023-04-01T04:39:43;6.35;;;4.13;;
13445;SDS011;6795;51.232;3.764;2023-04-01T04:42:12;7.32;;;4.95;;
13445;SDS011;6795;51.232;3.764;2023-04-01T04:44:41;9.13;;;4.38;;
13445;SDS011;6795;51.232;3.764;2023-04-01T04:47:09;4.10;;;3.00;;
13445;SDS011;6795;51.232;3.764;2023-04-01T04:49:38;10.75;;;4.70;;
13445;SDS011;6795;51.232;3.764;2023-04-01T04:52:07;5.75;;;3.20;;
13445;SDS011;6795;51.232;3.764;2023-04-01T04:54:37;5.28;;;3.20;;
13445;SDS011;6795;51.232;3.764;2023-04-01T04:57:06;6.90;;;3.38;;
13445;SDS011;6795;51.232;3.764;2023-04-01T04:59:34;9.45;;;3.97;;
13445;SDS011;6795;51.232;3.764;2023-04-01T05:02:03;10.20;;;4.22;;
13445;SDS011;6795;51.232;3.764;2023-04-01T05:04:34;11.20;;;4.05;;
13445;SDS011;6795;51.232;3.764;2023-04-01T05:07:03;11.23;;;3.58;;
13445;SDS011;6795;51.232;3.764;2023-04-01T05:09:31;4.55;;;2.38;;
13445;SDS011;6795;51.232;3.764;2023-04-01T05:12:01;3.80;;;2.53;;
13445;SDS011;6795;51.232;3.764;2023-04-01T05:14:30;5.50;;;2.60;;
13445;SDS011;6795;51.232;3.764;2023-04-01T05:16:59;6.35;;;2.85;;
13445;SDS011;6795;51.232;3.764;2023-04-01T05:19:28;8.45;;;2.75;;
13445;SDS011;6795;51.232;3.764;2023-04-01T05:21:56;2.85;;;2.10;;
13445;SDS011;6795;51.232;3.764;2023-04-01T05:24:25;5.50;;;2.80;;
13445;SDS011;6795;51.232;3.764;2023-04-01T05:26:53;6.45;;;2.83;;
13445;SDS011;6795;51.232;3.764;2023-04-01T05:29:24;4.97;;;2.63;;
13445;SDS011;6795;51.232;3.764;2023-04-01T05:31:53;2.22;;;2.03;;
13445;SDS011;6795;51.232;3.764;2023-04-01T05:34:22;5.05;;;2.33;;
13445;SDS011;6795;51.232;3.764;2023-04-01T05:36:50;4.50;;;2.00;;
13445;SDS011;6795;51.232;3.764;2023-04-01T05:39:19;7.18;;;2.72;;
13445;SDS011;6795;51.232;3.764;2023-04-01T05:41:48;4.28;;;2.80;;
13445;SDS011;6795;51.232;3.764;2023-04-01T05:44:17;8.18;;;3.45;;
13445;SDS011;6795;51.232;3.764;2023-04-01T05:46:47;6.90;;;2.30;;
13445;SDS011;6795;51.232;3.764;2023-04-01T05:49:15;5.93;;;2.28;;
13445;SDS011;6795;51.232;3.764;2023-04-01T05:51:44;4.75;;;1.90;;
13445;SDS011;6795;51.232;3.764;2023-04-01T05:54:13;4.45;;;1.85;;
13445;SDS011;6795;51.232;3.764;2023-04-01T05:56:42;7.72;;;2.50;;
13445;SDS011;6795;51.232;3.764;2023-04-01T05:59:13;7.05;;;3.22;;
13445;SDS011;6795;51.232;3.764;2023-04-01T06:01:42;2.88;;;1.73;;
13445;SDS011;6795;51.232;3.764;2023-04-01T06:04:15;3.95;;;2.17;;
13445;SDS011;6795;51.232;3.764;2023-04-01T06:06:44;4.93;;;1.95;;
13445;SDS011;6795;51.232;3.764;2023-04-01T06:09:13;2.10;;;1.38;;
13445;SDS011;6795;51.232;3.764;2023-04-01T06:11:46;3.88;;;1.70;;
13445;SDS011;6795;51.232;3.764;2023-04-01T06:14:22;4.55;;;1.98;;
13445;SDS011;6795;51.232;3.764;2023-04-01T06:16:57;4.90;;;1.95;;
13445;SDS011;6795;51.232;3.764;2023-04-01T06:19:38;4.25;;;1.80;;
13445;SDS011;6795;51.232;3.764;2023-04-01T06:25:12;2.42;;;1.20;;
13445;SDS011;6795;51.232;3.764;2023-04-01T06:27:51;3.28;;;0.85;;
13445;SDS011;6795;51.232;3.764;2023-04-01T06:30:27;3.60;;;1.30;;
13445;SDS011;6795;51.232;3.764;2023-04-01T06:33:01;3.65;;;1.35;;
13445;SDS011;6795;51.232;3.764;2023-04-01T06:38:37;2.33;;;1.27;;
13445;SDS011;6795;51.232;3.764;2023-04-01T06:41:27;2.50;;;1.02;;
13445;SDS011;6795;51.232;3.764;2023-04-01T06:44:05;4.50;;;1.77;;
13445;SDS011;6795;51.232;3.764;2023-04-01T06:46:37;3.17;;;2.20;;
13445;SDS011;6795;51.232;3.764;2023-04-01T06:49:21;3.63;;;0.98;;
13445;SDS011;6795;51.232;3.764;2023-04-01T06:51:55;7.28;;;1.48;;
13445;SDS011;6795;51.232;3.764;2023-04-01T06:54:28;2.55;;;1.33;;
13445;SDS011;6795;51.232;3.764;2023-04-01T06:57:00;3.53;;;1.08;;
13445;SDS011;6795;51.232;3.764;2023-04-01T06:59:32;4.60;;;1.27;;
13445;SDS011;6795;51.232;3.764;2023-04-01T07:02:04;4.03;;;1.17;;
13445;SDS011;6795;51.232;3.764;2023-04-01T07:04:35;6.45;;;2.00;;
13445;SDS011;6795;51.232;3.764;2023-04-01T07:07:09;2.97;;;1.00;;
13445;SDS011;6795;51.232;3.764;2023-04-01T07:09:41;1.80;;;1.05;;
13445;SDS011;6795;51.232;3.764;2023-04-01T07:12:11;1.30;;;1.02;;
13445;SDS011;6795;51.232;3.764;2023-04-01T07:14:41;2.28;;;1.10;;
13445;SDS011;6795;51.232;3.764;2023-04-01T07:17:12;4.35;;;0.80;;
13445;SDS011;6795;51.232;3.764;2023-04-01T07:19:44;4.22;;;0.90;;
13445;SDS011;6795;51.232;3.764;2023-04-01T07:22:16;4.70;;;0.93;;
13445;SDS011;6795;51.232;3.764;2023-04-01T07:24:49;4.93;;;0.98;;
13445;SDS011;6795;51.232;3.764;2023-04-01T07:27:18;2.95;;;1.30;;
13445;SDS011;6795;51.232;3.764;2023-04-01T07:29:46;3.83;;;1.25;;
13445;SDS011;6795;51.232;3.764;2023-04-01T07:32:17;3.75;;;1.00;;
13445;SDS011;6795;51.232;3.764;2023-04-01T07:34:51;3.60;;;1.33;;
13445;SDS011;6795;51.232;3.764;2023-04-01T07:37:22;4.63;;;0.90;;
13445;SDS011;6795;51.232;3.764;2023-04-01T07:39:56;5.00;;;0.90;;
13445;SDS011;6795;51.232;3.764;2023-04-01T07:42:31;4.38;;;1.52;;
13445;SDS011;6795;51.232;3.764;2023-04-01T07:45:05;4.00;;;0.98;;
13445;SDS011;6795;51.232;3.764;2023-04-01T07:47:41;2.47;;;1.15;;
13445;SDS011;6795;51.232;3.764;2023-04-01T07:50:17;3.75;;;0.90;;
13445;SDS011;6795;51.232;3.764;2023-04-01T07:52:49;2.03;;;0.90;;
13445;SDS011;6795;51.232;3.764;2023-04-01T07:55:21;1.63;;;0.80;;
13445;SDS011;6795;51.232;3.764;2023-04-01T07:57:52;3.28;;;1.25;;
13445;SDS011;6795;51.232;3.764;2023-04-01T08:00:27;2.35;;;1.15;;
13445;SDS011;6795;51.232;3.764;2023-04-01T08:03:02;6.85;;;1.33;;
13445;SDS011;6795;51.232;3.764;2023-04-01T08:05:40;2.53;;;1.02;;
13445;SDS011;6795;51.232;3.764;2023-04-01T08:08:12;2.28;;;0.80;;
13445;SDS011;6795;51.232;3.764;2023-04-01T08:10:47;4.75;;;0.85;;
13445;SDS011;6795;51.232;3.764;2023-04-01T08:13:21;3.58;;;0.82;;
13445;SDS011;6795;51.232;3.764;2023-04-01T08:15:53;3.30;;;0.68;;
13445;SDS011;6795;51.232;3.764;2023-04-01T08:18:27;2.10;;;0.60;;
13445;SDS011;6795;51.232;3.764;2023-04-01T08:21:02;4.95;;;0.70;;
13445;SDS011;6795;51.232;3.764;2023-04-01T08:23:33;4.38;;;0.60;;
13445;SDS011;6795;51.232;3.764;2023-04-01T08:26:05;3.78;;;0.70;;
13445;SDS011;6795;51.232;3.764;2023-04-01T08:28:37;3.33;;;0.73;;
13445;SDS011;6795;51.232;3.764;2023-04-01T08:31:09;2.78;;;0.57;;
13445;SDS011;6795;51.232;3.764;2023-04-01T08:33:39;0.88;;;0.77;;
13445;SDS011;6795;51.232;3.764;2023-04-01T08:36:08;4.22;;;1.10;;
13445;SDS011;6795;51.232;3.764;2023-04-01T08:38:39;3.25;;;0.82;;
13445;SDS011;6795;51.232;3.764;2023-04-01T08:41:23;7.53;;;1.08;;
13445;SDS011;6795;51.232;3.764;2023-04-01T08:43:59;2.63;;;0.70;;
13445;SDS011;6795;51.232;3.764;2023-04-01T08:49:31;2.97;;;1.10;;
13445;SDS011;6795;51.232;3.764;2023-04-01T08:57:30;3.35;;;0.70;;
13445;SDS011;6795;51.232;3.764;2023-04-01T09:00:03;5.13;;;0.70;;
13445;SDS011;6795;51.232;3.764;2023-04-01T09:05:34;2.25;;;0.50;;
13445;SDS011;6795;51.232;3.764;2023-04-01T09:08:08;2.40;;;0.50;;
13445;SDS011;6795;51.232;3.764;2023-04-01T09:10:46;1.20;;;1.00;;
13445;SDS011;6795;51.232;3.764;2023-04-01T09:13:23;1.88;;;0.45;;
13445;SDS011;6795;51.232;3.764;2023-04-01T09:15:56;2.58;;;0.30;;
13445;SDS011;6795;51.232;3.764;2023-04-01T09:18:42;1.40;;;0.40;;
13445;SDS011;6795;51.232;3.764;2023-04-01T09:21:24;3.03;;;0.40;;
13445;SDS011;6795;51.232;3.764;2023-04-01T09:26:50;1.13;;;0.30;;
13445;SDS011;6795;51.232;3.764;2023-04-01T09:29:30;1.27;;;0.40;;
13445;SDS011;6795;51.232;3.764;2023-04-01T09:32:20;1.63;;;0.40;;
13445;SDS011;6795;51.232;3.764;2023-04-01T09:34:54;3.60;;;0.40;;
13445;SDS011;6795;51.232;3.764;2023-04-01T09:37:27;2.92;;;0.30;;
13445;SDS011;6795;51.232;3.764;2023-04-01T09:40:03;1.70;;;0.55;;
13445;SDS011;6795;51.232;3.764;2023-04-01T09:42:42;1.55;;;0.75;;
13445;SDS011;6795;51.232;3.764;2023-04-01T09:45:17;3.78;;;0.70;;
13445;SDS011;6795;51.232;3.764;2023-04-01T09:47:53;1.83;;;0.40;;
13445;SDS011;6795;51.232;3.764;2023-04-01T09:50:29;0.98;;;0.52;;
13445;SDS011;6795;51.232;3.764;2023-04-01T09:53:04;3.78;;;0.45;;
13445;SDS011;6795;51.232;3.764;2023-04-01T10:07:21;2.28;;;0.73;;
13445;SDS011;6795;51.232;3.764;2023-04-01T10:10:21;3.28;;;0.50;;
13445;SDS011;6795;51.232;3.764;2023-04-01T10:16:03;3.50;;;0.22;;
13445;SDS011;6795;51.232;3.764;2023-04-01T10:18:36;5.57;;;0.60;;
13445;SDS011;6795;51.232;3.764;2023-04-01T10:21:17;3.95;;;1.42;;
13445;SDS011;6795;51.232;3.764;2023-04-01T10:24:01;4.38;;;0.55;;
13445;SDS011;6795;51.232;3.764;2023-04-01T10:26:43;2.90;;;0.60;;
13445;SDS011;6795;51.232;3.764;2023-04-01T10:29:22;1.92;;;0.50;;
13445;SDS011;6795;51.232;3.764;2023-04-01T10:32:11;2.30;;;0.30;;
13445;SDS011;6795;51.232;3.764;2023-04-01T10:34:55;2.42;;;0.40;;
13445;SDS011;6795;51.232;3.764;2023-04-01T10:37:34;2.85;;;0.30;;
13445;SDS011;6795;51.232;3.764;2023-04-01T10:40:19;0.40;;;0.30;;
13445;SDS011;6795;51.232;3.764;2023-04-01T10:43:09;2.45;;;0.30;;
13445;SDS011;6795;51.232;3.764;2023-04-01T10:45:47;1.70;;;0.40;;
13445;SDS011;6795;51.232;3.764;2023-04-01T10:48:34;2.83;;;0.30;;
13445;SDS011;6795;51.232;3.764;2023-04-01T10:51:12;4.05;;;0.50;;
13445;SDS011;6795;51.232;3.764;2023-04-01T10:56:41;1.40;;;0.52;;
13445;SDS011;6795;51.232;3.764;2023-04-01T11:02:08;2.22;;;0.40;;
13445;SDS011;6795;51.232;3.764;2023-04-01T11:07:37;2.47;;;0.47;;
13445;SDS011;6795;51.232;3.764;2023-04-01T11:10:26;1.58;;;0.47;;
13445;SDS011;6795;51.232;3.764;2023-04-01T11:16:12;2.33;;;0.40;;
13445;SDS011;6795;51.232;3.764;2023-04-01T11:18:54;3.20;;;0.30;;
13445;SDS011;6795;51.232;3.764;2023-04-01T11:24:29;2.78;;;0.30;;
13445;SDS011;6795;51.232;3.764;2023-04-01T11:27:03;0.40;;;0.30;;
13445;SDS011;6795;51.232;3.764;2023-04-01T11:29:48;2.42;;;0.35;;
13445;SDS011;6795;51.232;3.764;2023-04-01T11:35:19;0.10;;;0.10;;
13445;SDS011;6795;51.232;3.764;2023-04-01T11:37:53;0.25;;;0.25;;
13445;SDS011;6795;51.232;3.764;2023-04-01T11:40:26;2.30;;;0.40;;
13445;SDS011;6795;51.232;3.764;2023-04-01T11:42:58;0.68;;;0.30;;
13445;SDS011;6795;51.232;3.764;2023-04-01T11:45:35;0.63;;;0.38;;
13445;SDS011;6795;51.232;3.764;2023-04-01T11:48:08;1.30;;;0.50;;
13445;SDS011;6795;51.232;3.764;2023-04-01T11:50:46;1.63;;;0.80;;
13445;SDS011;6795;51.232;3.764;2023-04-01T11:53:27;0.98;;;0.60;;
13445;SDS011;6795;51.232;3.764;2023-04-01T11:56:00;2.47;;;0.50;;
13445;SDS011;6795;51.232;3.764;2023-04-01T12:01:36;2.60;;;0.40;;
13445;SDS011;6795;51.232;3.764;2023-04-01T12:04:21;2.70;;;0.98;;
13445;SDS011;6795;51.232;3.764;2023-04-01T12:06:59;0.77;;;0.30;;
13445;SDS011;6795;51.232;3.764;2023-04-01T12:09:31;1.05;;;0.50;;
13445;SDS011;6795;51.232;3.764;2023-04-01T12:12:06;0.75;;;0.40;;
13445;SDS011;6795;51.232;3.764;2023-04-01T12:14:39;0.88;;;0.52;;
13445;SDS011;6795;51.232;3.764;2023-04-01T12:17:15;1.55;;;0.30;;
13445;SDS011;6795;51.232;3.764;2023-04-01T12:19:51;1.17;;;0.30;;
13445;SDS011;6795;51.232;3.764;2023-04-01T12:25:16;0.55;;;0.35;;
13445;SDS011;6795;51.232;3.764;2023-04-01T12:27:59;1.15;;;0.40;;
13445;SDS011;6795;51.232;3.764;2023-04-01T12:30:46;3.28;;;0.47;;
13445;SDS011;6795;51.232;3.764;2023-04-01T12:36:32;2.28;;;0.20;;
13445;SDS011;6795;51.232;3.764;2023-04-01T12:39:17;0.10;;;0.10;;
13445;SDS011;6795;51.232;3.764;2023-04-01T12:42:03;5.07;;;0.77;;
13445;SDS011;6795;51.232;3.764;2023-04-01T12:44:41;3.53;;;0.20;;
13445;SDS011;6795;51.232;3.764;2023-04-01T12:47:30;2.15;;;0.10;;
13445;SDS011;6795;51.232;3.764;2023-04-01T12:53:11;1.67;;;0.20;;
13445;SDS011;6795;51.232;3.764;2023-04-01T12:56:03;2.92;;;0.30;;
13445;SDS011;6795;51.232;3.764;2023-04-01T13:01:46;1.73;;;0.13;;
13445;SDS011;6795;51.232;3.764;2023-04-01T13:10:26;0.73;;;0.10;;
13445;SDS011;6795;51.232;3.764;2023-04-01T13:13:18;3.15;;;0.40;;
13445;SDS011;6795;51.232;3.764;2023-04-01T13:16:07;0.75;;;0.20;;
13445;SDS011;6795;51.232;3.764;2023-04-01T13:18:47;6.60;;;0.30;;
13445;SDS011;6795;51.232;3.764;2023-04-01T13:21:28;2.20;;;0.20;;
13445;SDS011;6795;51.232;3.764;2023-04-01T13:24:04;0.45;;;0.20;;
13445;SDS011;6795;51.232;3.764;2023-04-01T13:26:44;1.13;;;0.20;;
13445;SDS011;6795;51.232;3.764;2023-04-01T13:29:25;1.45;;;0.20;;
13445;SDS011;6795;51.232;3.764;2023-04-01T13:32:05;3.00;;;0.20;;
13445;SDS011;6795;51.232;3.764;2023-04-01T13:34:47;2.25;;;0.20;;
13445;SDS011;6795;51.232;3.764;2023-04-01T13:37:31;5.05;;;0.30;;
13445;SDS011;6795;51.232;3.764;2023-04-01T13:40:23;3.65;;;0.60;;
13445;SDS011;6795;51.232;3.764;2023-04-01T13:43:01;0.80;;;0.30;;
13445;SDS011;6795;51.232;3.764;2023-04-01T13:45:38;0.52;;;0.15;;
13445;SDS011;6795;51.232;3.764;2023-04-01T13:48:28;1.73;;;0.20;;
13445;SDS011;6795;51.232;3.764;2023-04-01T13:51:07;0.90;;;0.10;;
13445;SDS011;6795;51.232;3.764;2023-04-01T13:54:09;1.58;;;0.20;;
13445;SDS011;6795;51.232;3.764;2023-04-01T13:57:00;0.45;;;0.10;;
13445;SDS011;6795;51.232;3.764;2023-04-01T14:08:51;2.20;;;0.25;;
13445;SDS011;6795;51.232;3.764;2023-04-01T14:11:39;3.00;;;0.50;;
13445;SDS011;6795;51.232;3.764;2023-04-01T14:14:21;1.45;;;0.20;;
13445;SDS011;6795;51.232;3.764;2023-04-01T14:17:02;2.40;;;0.20;;
13445;SDS011;6795;51.232;3.764;2023-04-01T14:19:49;3.00;;;0.20;;
13445;SDS011;6795;51.232;3.764;2023-04-01T14:22:37;1.08;;;0.10;;
13445;SDS011;6795;51.232;3.764;2023-04-01T14:28:05;0.75;;;0.28;;
13445;SDS011;6795;51.232;3.764;2023-04-01T14:31:06;0.32;;;0.20;;
13445;SDS011;6795;51.232;3.764;2023-04-01T14:34:00;1.00;;;0.13;;
13445;SDS011;6795;51.232;3.764;2023-04-01T14:36:48;0.32;;;0.20;;
13445;SDS011;6795;51.232;3.764;2023-04-01T14:39:29;1.58;;;0.30;;
13445;SDS011;6795;51.232;3.764;2023-04-01T14:42:17;0.47;;;0.20;;
13445;SDS011;6795;51.232;3.764;2023-04-01T14:45:02;1.30;;;0.20;;
13445;SDS011;6795;51.232;3.764;2023-04-01T14:47:53;2.03;;;0.20;;
13445;SDS011;6795;51.232;3.764;2023-04-01T14:50:25;0.45;;;0.20;;
13445;SDS011;6795;51.232;3.764;2023-04-01T14:52:59;2.90;;;0.95;;
13445;SDS011;6795;51.232;3.764;2023-04-01T14:55:46;2.40;;;0.20;;
13445;SDS011;6795;51.232;3.764;2023-04-01T14:58:18;2.45;;;0.22;;
13445;SDS011;6795;51.232;3.764;2023-04-01T15:00:57;3.08;;;0.90;;
13445;SDS011;6795;51.232;3.764;2023-04-01T15:03:36;1.20;;;0.30;;
13445;SDS011;6795;51.232;3.764;2023-04-01T15:06:20;0.85;;;0.30;;
13445;SDS011;6795;51.232;3.764;2023-04-01T15:09:13;1.08;;;0.10;;
13445;SDS011;6795;51.232;3.764;2023-04-01T15:11:54;2.60;;;0.20;;
13445;SDS011;6795;51.232;3.764;2023-04-01T15:14:45;1.08;;;0.20;;
13445;SDS011;6795;51.232;3.764;2023-04-01T15:17:30;1.17;;;0.20;;
13445;SDS011;6795;51.232;3.764;2023-04-01T15:20:14;3.05;;;0.30;;
13445;SDS011;6795;51.232;3.764;2023-04-01T15:22:56;1.83;;;0.20;;
13445;SDS011;6795;51.232;3.764;2023-04-01T15:25:48;1.75;;;0.38;;
13445;SDS011;6795;51.232;3.764;2023-04-01T15:28:30;1.90;;;0.30;;
13445;SDS011;6795;51.232;3.764;2023-04-01T15:31:06;2.25;;;0.20;;
13445;SDS011;6795;51.232;3.764;2023-04-01T15:33:48;2.85;;;0.20;;
13445;SDS011;6795;51.232;3.764;2023-04-01T15:36:38;0.60;;;0.20;;
13445;SDS011;6795;51.232;3.764;2023-04-01T15:39:13;1.25;;;0.20;;
13445;SDS011;6795;51.232;3.764;2023-04-01T15:41:48;0.38;;;0.20;;
13445;SDS011;6795;51.232;3.764;2023-04-01T15:44:40;2.40;;;0.25;;
13445;SDS011;6795;51.232;3.764;2023-04-01T15:47:28;3.08;;;0.30;;
13445;SDS011;6795;51.232;3.764;2023-04-01T15:52:59;1.80;;;0.20;;
13445;SDS011;6795;51.232;3.764;2023-04-01T15:55:37;4.20;;;0.30;;
13445;SDS011;6795;51.232;3.764;2023-04-01T15:58:21;0.60;;;0.30;;
13445;SDS011;6795;51.232;3.764;2023-04-01T16:00:57;0.95;;;0.20;;
13445;SDS011;6795;51.232;3.764;2023-04-01T16:03:34;0.50;;;0.32;;
13445;SDS011;6795;51.232;3.764;2023-04-01T16:09:02;3.35;;;0.38;;
13445;SDS011;6795;51.232;3.764;2023-04-01T16:11:37;0.65;;;0.40;;
13445;SDS011;6795;51.232;3.764;2023-04-01T16:14:16;2.33;;;0.60;;
13445;SDS011;6795;51.232;3.764;2023-04-01T16:16:53;6.50;;;1.40;;
13445;SDS011;6795;51.232;3.764;2023-04-01T16:19:30;6.30;;;2.67;;
13445;SDS011;6795;51.232;3.764;2023-04-01T16:22:02;3.95;;;1.92;;
13445;SDS011;6795;51.232;3.764;2023-04-01T16:24:34;5.60;;;1.42;;
13445;SDS011;6795;51.232;3.764;2023-04-01T16:27:04;8.85;;;2.80;;
13445;SDS011;6795;51.232;3.764;2023-04-01T16:29:38;2.85;;;2.13;;
13445;SDS011;6795;51.232;3.764;2023-04-01T16:35:05;5.60;;;2.80;;
13445;SDS011;6795;51.232;3.764;2023-04-01T16:37:43;4.78;;;1.15;;
13445;SDS011;6795;51.232;3.764;2023-04-01T16:40:16;3.83;;;0.90;;
13445;SDS011;6795;51.232;3.764;2023-04-01T16:42:51;1.50;;;0.75;;
13445;SDS011;6795;51.232;3.764;2023-04-01T16:45:24;1.15;;;0.70;;
13445;SDS011;6795;51.232;3.764;2023-04-01T16:47:55;5.57;;;0.82;;
13445;SDS011;6795;51.232;3.764;2023-04-01T16:50:28;2.72;;;0.98;;
13445;SDS011;6795;51.232;3.764;2023-04-01T16:52:59;1.35;;;0.98;;
13445;SDS011;6795;51.232;3.764;2023-04-01T16:55:35;5.28;;;1.00;;
13445;SDS011;6795;51.232;3.764;2023-04-01T16:58:10;4.28;;;1.23;;
13445;SDS011;6795;51.232;3.764;2023-04-01T17:00:47;3.70;;;1.13;;
13445;SDS011;6795;51.232;3.764;2023-04-01T17:03:21;2.53;;;0.80;;
13445;SDS011;6795;51.232;3.764;2023-04-01T17:05:54;4.65;;;1.77;;
13445;SDS011;6795;51.232;3.764;2023-04-01T17:08:35;2.72;;;1.10;;
13445;SDS011;6795;51.232;3.764;2023-04-01T17:11:07;6.38;;;1.83;;
13445;SDS011;6795;51.232;3.764;2023-04-01T17:13:46;5.00;;;1.60;;
13445;SDS011;6795;51.232;3.764;2023-04-01T17:16:24;10.70;;;2.33;;
13445;SDS011;6795;51.232;3.764;2023-04-01T17:18:59;3.28;;;1.35;;
13445;SDS011;6795;51.232;3.764;2023-04-01T17:21:35;8.77;;;2.78;;
13445;SDS011;6795;51.232;3.764;2023-04-01T17:24:06;11.30;;;2.88;;